sensor_id;sensor_type;location;lat;lon;timestamp;P1;durP1;ratioP1;P2;durP2;ratioP2
41059;SDS011;26811;53.160;8.202;2022-08-02T00:00:56;53.83;;;17.10;;
41059;SDS011;26811;53.160;8.202;2022-08-02T00:05:57;43.58;;;16.90;;
41059;SDS011;26811;53.160;8.202;2022-08-02T00:10:57;51.60;;;17.83;;
41059;SDS011;26811;53.160;8.202;2022-08-02T00:15:58;52.33;;;16.70;;
41059;SDS011;26811;53.160;8.202;2022-08-02T00:20:58;50.60;;;15.85;;
41059;SDS011;26811;53.160;8.202;2022-08-02T00:25:59;44.92;;;15.55;;
41059;SDS011;26811;53.160;8.202;2022-08-02T00:31:00;49.30;;;16.27;;
41059;SDS011;26811;53.160;8.202;2022-08-02T00:36:00;44.70;;;15.68;;
41059;SDS011;26811;53.160;8.202;2022-08-02T00:41:01;40.83;;;13.73;;
41059;SDS011;26811;53.160;8.202;2022-08-02T00:46:01;56.97;;;15.20;;
41059;SDS011;26811;53.160;8.202;2022-08-02T00:51:02;45.20;;;14.88;;
41059;SDS011;26811;53.160;8.202;2022-08-02T00:56:03;54.05;;;16.10;;
41059;SDS011;26811;53.160;8.202;2022-08-02T01:01:03;41.97;;;15.32;;
41059;SDS011;26811;53.160;8.202;2022-08-02T01:06:04;40.45;;;14.70;;
41059;SDS011;26811;53.160;8.202;2022-08-02T01:11:05;35.15;;;14.13;;
41059;SDS011;26811;53.160;8.202;2022-08-02T01:16:09;47.15;;;15.13;;
41059;SDS011;26811;53.160;8.202;2022-08-02T01:26:46;42.08;;;14.80;;
41059;SDS011;26811;53.160;8.202;2022-08-02T01:31:55;33.05;;;14.07;;
41059;SDS011;26811;53.160;8.202;2022-08-02T01:37:10;38.40;;;14.95;;
41059;SDS011;26811;53.160;8.202;2022-08-02T01:42:21;35.55;;;13.75;;
41059;SDS011;26811;53.160;8.202;2022-08-02T01:47:28;52.20;;;14.65;;
41059;SDS011;26811;53.160;8.202;2022-08-02T01:52:32;35.95;;;13.85;;
41059;SDS011;26811;53.160;8.202;2022-08-02T01:57:38;42.38;;;13.82;;
41059;SDS011;26811;53.160;8.202;2022-08-02T02:02:41;34.08;;;13.30;;
41059;SDS011;26811;53.160;8.202;2022-08-02T02:12:46;39.15;;;12.50;;
41059;SDS011;26811;53.160;8.202;2022-08-02T02:17:49;33.40;;;12.13;;
41059;SDS011;26811;53.160;8.202;2022-08-02T02:22:52;36.80;;;13.02;;
41059;SDS011;26811;53.160;8.202;2022-08-02T02:27:54;36.10;;;11.80;;
41059;SDS011;26811;53.160;8.202;2022-08-02T02:33:00;35.20;;;12.43;;
41059;SDS011;26811;53.160;8.202;2022-08-02T02:38:05;31.80;;;11.63;;
41059;SDS011;26811;53.160;8.202;2022-08-02T02:43:09;39.15;;;11.57;;
41059;SDS011;26811;53.160;8.202;2022-08-02T02:48:12;29.27;;;12.07;;
41059;SDS011;26811;53.160;8.202;2022-08-02T02:53:15;33.97;;;11.98;;
41059;SDS011;26811;53.160;8.202;2022-08-02T02:58:18;34.58;;;11.10;;
41059;SDS011;26811;53.160;8.202;2022-08-02T03:03:19;31.45;;;11.45;;
41059;SDS011;26811;53.160;8.202;2022-08-02T03:08:20;32.10;;;11.45;;
41059;SDS011;26811;53.160;8.202;2022-08-02T03:13:21;32.15;;;11.18;;
41059;SDS011;26811;53.160;8.202;2022-08-02T03:18:29;35.65;;;11.48;;
41059;SDS011;26811;53.160;8.202;2022-08-02T03:23:34;41.08;;;12.45;;
41059;SDS011;26811;53.160;8.202;2022-08-02T03:28:34;28.83;;;10.90;;
41059;SDS011;26811;53.160;8.202;2022-08-02T03:33:35;34.13;;;11.18;;
41059;SDS011;26811;53.160;8.202;2022-08-02T03:38:36;29.35;;;11.07;;
41059;SDS011;26811;53.160;8.202;2022-08-02T03:43:38;28.77;;;10.80;;
41059;SDS011;26811;53.160;8.202;2022-08-02T03:48:40;32.80;;;10.82;;
41059;SDS011;26811;53.160;8.202;2022-08-02T03:53:41;35.95;;;11.20;;
41059;SDS011;26811;53.160;8.202;2022-08-02T03:58:42;41.08;;;12.73;;
41059;SDS011;26811;53.160;8.202;2022-08-02T04:03:43;38.65;;;12.55;;
41059;SDS011;26811;53.160;8.202;2022-08-02T04:08:44;46.38;;;12.88;;
41059;SDS011;26811;53.160;8.202;2022-08-02T04:13:44;46.33;;;13.13;;
41059;SDS011;26811;53.160;8.202;2022-08-02T04:18:49;44.35;;;13.38;;
41059;SDS011;26811;53.160;8.202;2022-08-02T04:23:54;52.72;;;14.82;;
41059;SDS011;26811;53.160;8.202;2022-08-02T04:28:55;56.30;;;14.27;;
41059;SDS011;26811;53.160;8.202;2022-08-02T04:33:56;46.63;;;12.77;;
41059;SDS011;26811;53.160;8.202;2022-08-02T04:38:58;53.17;;;13.95;;
41059;SDS011;26811;53.160;8.202;2022-08-02T04:43:58;41.83;;;13.00;;
41059;SDS011;26811;53.160;8.202;2022-08-02T04:48:59;53.00;;;14.55;;
41059;SDS011;26811;53.160;8.202;2022-08-02T04:53:59;36.90;;;13.07;;
41059;SDS011;26811;53.160;8.202;2022-08-02T04:59:00;39.25;;;12.40;;
41059;SDS011;26811;53.160;8.202;2022-08-02T05:04:01;35.85;;;11.07;;
41059;SDS011;26811;53.160;8.202;2022-08-02T05:09:02;41.15;;;11.73;;
41059;SDS011;26811;53.160;8.202;2022-08-02T05:14:03;47.00;;;12.00;;
41059;SDS011;26811;53.160;8.202;2022-08-02T05:19:04;35.03;;;11.18;;
41059;SDS011;26811;53.160;8.202;2022-08-02T05:24:05;45.97;;;11.38;;
41059;SDS011;26811;53.160;8.202;2022-08-02T05:29:06;53.50;;;10.73;;
41059;SDS011;26811;53.160;8.202;2022-08-02T05:34:06;47.35;;;10.32;;
41059;SDS011;26811;53.160;8.202;2022-08-02T05:39:07;41.53;;;9.40;;
41059;SDS011;26811;53.160;8.202;2022-08-02T05:44:08;40.75;;;8.82;;
41059;SDS011;26811;53.160;8.202;2022-08-02T05:49:08;38.83;;;9.70;;
41059;SDS011;26811;53.160;8.202;2022-08-02T05:54:19;24.00;;;8.00;;
41059;SDS011;26811;53.160;8.202;2022-08-02T06:04:40;28.30;;;7.72;;
41059;SDS011;26811;53.160;8.202;2022-08-02T06:09:55;26.88;;;6.97;;
41059;SDS011;26811;53.160;8.202;2022-08-02T06:14:58;41.03;;;8.23;;
41059;SDS011;26811;53.160;8.202;2022-08-02T06:20:00;40.07;;;9.03;;
41059;SDS011;26811;53.160;8.202;2022-08-02T06:25:02;32.67;;;8.65;;
41059;SDS011;26811;53.160;8.202;2022-08-02T06:30:04;48.97;;;9.25;;
41059;SDS011;26811;53.160;8.202;2022-08-02T06:35:05;31.40;;;8.32;;
41059;SDS011;26811;53.160;8.202;2022-08-02T06:40:13;44.00;;;9.77;;
41059;SDS011;26811;53.160;8.202;2022-08-02T06:45:17;46.65;;;8.98;;
41059;SDS011;26811;53.160;8.202;2022-08-02T06:50:18;42.05;;;8.30;;
41059;SDS011;26811;53.160;8.202;2022-08-02T06:55:19;32.75;;;7.70;;
41059;SDS011;26811;53.160;8.202;2022-08-02T07:00:20;52.33;;;7.82;;
41059;SDS011;26811;53.160;8.202;2022-08-02T07:05:20;40.45;;;8.23;;
41059;SDS011;26811;53.160;8.202;2022-08-02T07:10:21;36.22;;;7.55;;
41059;SDS011;26811;53.160;8.202;2022-08-02T07:15:22;32.33;;;7.57;;
41059;SDS011;26811;53.160;8.202;2022-08-02T07:20:22;36.27;;;6.20;;
41059;SDS011;26811;53.160;8.202;2022-08-02T07:25:23;28.63;;;7.13;;
41059;SDS011;26811;53.160;8.202;2022-08-02T07:30:23;43.87;;;7.03;;
41059;SDS011;26811;53.160;8.202;2022-08-02T07:35:24;36.33;;;6.90;;
41059;SDS011;26811;53.160;8.202;2022-08-02T07:40:25;32.90;;;7.40;;
41059;SDS011;26811;53.160;8.202;2022-08-02T07:45:26;44.40;;;6.90;;
41059;SDS011;26811;53.160;8.202;2022-08-02T07:50:27;31.13;;;6.85;;
41059;SDS011;26811;53.160;8.202;2022-08-02T08:00:29;29.93;;;6.77;;
41059;SDS011;26811;53.160;8.202;2022-08-02T08:05:30;31.63;;;6.53;;
41059;SDS011;26811;53.160;8.202;2022-08-02T08:10:30;24.40;;;6.80;;
41059;SDS011;26811;53.160;8.202;2022-08-02T08:15:31;29.30;;;5.83;;
41059;SDS011;26811;53.160;8.202;2022-08-02T08:20:31;26.53;;;6.27;;
41059;SDS011;26811;53.160;8.202;2022-08-02T08:25:32;30.60;;;6.90;;
41059;SDS011;26811;53.160;8.202;2022-08-02T08:30:33;28.40;;;6.90;;
41059;SDS011;26811;53.160;8.202;2022-08-02T08:35:33;26.77;;;6.80;;
41059;SDS011;26811;53.160;8.202;2022-08-02T08:40:34;29.47;;;5.70;;
41059;SDS011;26811;53.160;8.202;2022-08-02T08:45:36;21.70;;;4.28;;
41059;SDS011;26811;53.160;8.202;2022-08-02T08:50:36;17.00;;;4.80;;
41059;SDS011;26811;53.160;8.202;2022-08-02T08:55:40;28.35;;;5.72;;
41059;SDS011;26811;53.160;8.202;2022-08-02T09:00:42;21.50;;;4.38;;
41059;SDS011;26811;53.160;8.202;2022-08-02T09:05:42;18.73;;;4.03;;
41059;SDS011;26811;53.160;8.202;2022-08-02T09:10:46;24.27;;;5.85;;
41059;SDS011;26811;53.160;8.202;2022-08-02T09:21:04;25.27;;;4.47;;
41059;SDS011;26811;53.160;8.202;2022-08-02T09:26:10;28.15;;;4.80;;
41059;SDS011;26811;53.160;8.202;2022-08-02T09:31:16;20.23;;;4.72;;
41059;SDS011;26811;53.160;8.202;2022-08-02T09:36:18;13.10;;;3.92;;
41059;SDS011;26811;53.160;8.202;2022-08-02T09:41:23;36.63;;;5.03;;
41059;SDS011;26811;53.160;8.202;2022-08-02T09:46:26;20.13;;;4.50;;
41059;SDS011;26811;53.160;8.202;2022-08-02T09:51:36;12.50;;;3.95;;
41059;SDS011;26811;53.160;8.202;2022-08-02T09:57:00;13.38;;;3.83;;
41059;SDS011;26811;53.160;8.202;2022-08-02T10:02:00;13.33;;;3.83;;
41059;SDS011;26811;53.160;8.202;2022-08-02T10:07:10;17.13;;;4.13;;
41059;SDS011;26811;53.160;8.202;2022-08-02T10:12:11;24.70;;;4.95;;
41059;SDS011;26811;53.160;8.202;2022-08-02T10:17:12;16.52;;;4.35;;
41059;SDS011;26811;53.160;8.202;2022-08-02T10:22:14;13.75;;;4.32;;
41059;SDS011;26811;53.160;8.202;2022-08-02T10:27:17;14.23;;;4.50;;
41059;SDS011;26811;53.160;8.202;2022-08-02T10:32:20;13.60;;;3.90;;
41059;SDS011;26811;53.160;8.202;2022-08-02T10:37:26;15.82;;;3.90;;
41059;SDS011;26811;53.160;8.202;2022-08-02T10:42:46;11.43;;;4.03;;
41059;SDS011;26811;53.160;8.202;2022-08-02T10:47:58;11.90;;;4.50;;
41059;SDS011;26811;53.160;8.202;2022-08-02T10:58:19;13.45;;;3.90;;
41059;SDS011;26811;53.160;8.202;2022-08-02T11:08:28;8.38;;;3.30;;
41059;SDS011;26811;53.160;8.202;2022-08-02T11:13:28;11.40;;;3.80;;
41059;SDS011;26811;53.160;8.202;2022-08-02T11:23:49;13.45;;;3.30;;
41059;SDS011;26811;53.160;8.202;2022-08-02T11:28:50;12.15;;;4.07;;
41059;SDS011;26811;53.160;8.202;2022-08-02T11:33:51;10.75;;;3.50;;
41059;SDS011;26811;53.160;8.202;2022-08-02T11:39:11;10.38;;;3.63;;
41059;SDS011;26811;53.160;8.202;2022-08-02T11:44:15;13.82;;;3.67;;
41059;SDS011;26811;53.160;8.202;2022-08-02T11:49:17;19.70;;;4.32;;
41059;SDS011;26811;53.160;8.202;2022-08-02T11:54:21;10.93;;;4.03;;
41059;SDS011;26811;53.160;8.202;2022-08-02T11:59:22;13.05;;;4.18;;
41059;SDS011;26811;53.160;8.202;2022-08-02T12:04:23;7.70;;;4.20;;
41059;SDS011;26811;53.160;8.202;2022-08-02T12:09:24;12.07;;;4.43;;
41059;SDS011;26811;53.160;8.202;2022-08-02T12:14:27;9.50;;;4.50;;
41059;SDS011;26811;53.160;8.202;2022-08-02T12:19:29;18.48;;;4.95;;
41059;SDS011;26811;53.160;8.202;2022-08-02T12:24:30;15.75;;;5.50;;
41059;SDS011;26811;53.160;8.202;2022-08-02T12:29:32;10.43;;;5.17;;
41059;SDS011;26811;53.160;8.202;2022-08-02T12:34:34;24.73;;;5.78;;
41059;SDS011;26811;53.160;8.202;2022-08-02T12:44:48;15.35;;;5.25;;
41059;SDS011;26811;53.160;8.202;2022-08-02T12:50:09;13.13;;;5.25;;
41059;SDS011;26811;53.160;8.202;2022-08-02T12:55:22;28.88;;;6.05;;
41059;SDS011;26811;53.160;8.202;2022-08-02T13:00:28;28.52;;;6.22;;
41059;SDS011;26811;53.160;8.202;2022-08-02T13:05:37;14.35;;;5.35;;
41059;SDS011;26811;53.160;8.202;2022-08-02T13:10:37;16.93;;;5.47;;
41059;SDS011;26811;53.160;8.202;2022-08-02T13:15:38;9.93;;;5.03;;
41059;SDS011;26811;53.160;8.202;2022-08-02T13:20:38;11.77;;;5.32;;
41059;SDS011;26811;53.160;8.202;2022-08-02T13:25:42;13.70;;;5.77;;
41059;SDS011;26811;53.160;8.202;2022-08-02T13:30:43;17.65;;;5.47;;
41059;SDS011;26811;53.160;8.202;2022-08-02T13:35:45;20.67;;;5.53;;
41059;SDS011;26811;53.160;8.202;2022-08-02T13:40:46;14.70;;;5.65;;
41059;SDS011;26811;53.160;8.202;2022-08-02T13:46:06;12.88;;;5.53;;
41059;SDS011;26811;53.160;8.202;2022-08-02T13:51:07;14.05;;;5.90;;
41059;SDS011;26811;53.160;8.202;2022-08-02T13:56:10;15.13;;;6.47;;
41059;SDS011;26811;53.160;8.202;2022-08-02T14:01:11;14.67;;;5.63;;
41059;SDS011;26811;53.160;8.202;2022-08-02T14:06:11;15.57;;;6.23;;
41059;SDS011;26811;53.160;8.202;2022-08-02T14:11:12;15.67;;;5.83;;
41059;SDS011;26811;53.160;8.202;2022-08-02T14:16:13;12.03;;;6.27;;
41059;SDS011;26811;53.160;8.202;2022-08-02T14:21:13;22.63;;;7.73;;
41059;SDS011;26811;53.160;8.202;2022-08-02T14:26:14;15.97;;;6.63;;
41059;SDS011;26811;53.160;8.202;2022-08-02T14:31:15;18.47;;;7.57;;
41059;SDS011;26811;53.160;8.202;2022-08-02T14:36:15;11.37;;;7.17;;
41059;SDS011;26811;53.160;8.202;2022-08-02T14:41:16;12.23;;;6.80;;
41059;SDS011;26811;53.160;8.202;2022-08-02T14:46:16;15.43;;;7.23;;
41059;SDS011;26811;53.160;8.202;2022-08-02T14:51:17;12.93;;;7.10;;
41059;SDS011;26811;53.160;8.202;2022-08-02T14:56:17;17.97;;;7.70;;
41059;SDS011;26811;53.160;8.202;2022-08-02T15:01:18;18.23;;;6.87;;
41059;SDS011;26811;53.160;8.202;2022-08-02T15:06:19;9.07;;;5.80;;
41059;SDS011;26811;53.160;8.202;2022-08-02T15:11:19;14.13;;;5.83;;
41059;SDS011;26811;53.160;8.202;2022-08-02T15:16:20;8.00;;;4.73;;
41059;SDS011;26811;53.160;8.202;2022-08-02T15:21:20;11.57;;;4.80;;
41059;SDS011;26811;53.160;8.202;2022-08-02T15:26:21;17.60;;;5.50;;
41059;SDS011;26811;53.160;8.202;2022-08-02T15:31:22;11.60;;;5.17;;
41059;SDS011;26811;53.160;8.202;2022-08-02T15:36:23;12.10;;;5.07;;
41059;SDS011;26811;53.160;8.202;2022-08-02T15:41:23;12.13;;;5.37;;
41059;SDS011;26811;53.160;8.202;2022-08-02T15:46:24;8.67;;;5.07;;
41059;SDS011;26811;53.160;8.202;2022-08-02T15:51:24;9.93;;;5.77;;
41059;SDS011;26811;53.160;8.202;2022-08-02T15:56:25;15.93;;;5.50;;
41059;SDS011;26811;53.160;8.202;2022-08-02T16:01:26;16.40;;;5.80;;
41059;SDS011;26811;53.160;8.202;2022-08-02T16:06:26;14.77;;;5.60;;
41059;SDS011;26811;53.160;8.202;2022-08-02T16:11:27;8.87;;;5.17;;
41059;SDS011;26811;53.160;8.202;2022-08-02T16:16:28;8.00;;;4.83;;
41059;SDS011;26811;53.160;8.202;2022-08-02T16:21:31;11.27;;;5.15;;
41059;SDS011;26811;53.160;8.202;2022-08-02T16:26:32;11.40;;;5.37;;
41059;SDS011;26811;53.160;8.202;2022-08-02T16:31:33;14.35;;;4.90;;
41059;SDS011;26811;53.160;8.202;2022-08-02T16:36:34;8.93;;;5.33;;
41059;SDS011;26811;53.160;8.202;2022-08-02T16:41:35;13.40;;;5.22;;
41059;SDS011;26811;53.160;8.202;2022-08-02T16:46:36;12.70;;;5.00;;
41059;SDS011;26811;53.160;8.202;2022-08-02T16:51:36;11.50;;;5.00;;
41059;SDS011;26811;53.160;8.202;2022-08-02T16:56:37;11.43;;;5.07;;
41059;SDS011;26811;53.160;8.202;2022-08-02T17:01:38;8.30;;;4.90;;
41059;SDS011;26811;53.160;8.202;2022-08-02T17:06:38;16.80;;;5.10;;
41059;SDS011;26811;53.160;8.202;2022-08-02T17:11:39;10.87;;;5.30;;
41059;SDS011;26811;53.160;8.202;2022-08-02T17:16:39;13.10;;;5.30;;
41059;SDS011;26811;53.160;8.202;2022-08-02T17:21:40;10.87;;;5.43;;
41059;SDS011;26811;53.160;8.202;2022-08-02T17:26:41;9.77;;;5.57;;
41059;SDS011;26811;53.160;8.202;2022-08-02T17:31:41;11.27;;;5.60;;
41059;SDS011;26811;53.160;8.202;2022-08-02T17:36:45;14.83;;;5.33;;
41059;SDS011;26811;53.160;8.202;2022-08-02T17:41:46;15.20;;;5.82;;
41059;SDS011;26811;53.160;8.202;2022-08-02T17:46:46;12.53;;;5.70;;
41059;SDS011;26811;53.160;8.202;2022-08-02T17:51:47;8.00;;;5.33;;
41059;SDS011;26811;53.160;8.202;2022-08-02T17:56:48;11.73;;;5.70;;
41059;SDS011;26811;53.160;8.202;2022-08-02T18:01:49;12.93;;;5.47;;
41059;SDS011;26811;53.160;8.202;2022-08-02T18:06:55;12.90;;;5.78;;
41059;SDS011;26811;53.160;8.202;2022-08-02T18:11:57;11.07;;;5.70;;
41059;SDS011;26811;53.160;8.202;2022-08-02T18:16:58;15.87;;;5.87;;
41059;SDS011;26811;53.160;8.202;2022-08-02T18:21:58;14.43;;;6.33;;
41059;SDS011;26811;53.160;8.202;2022-08-02T18:27:01;15.15;;;6.35;;
41059;SDS011;26811;53.160;8.202;2022-08-02T18:32:02;13.27;;;6.00;;
41059;SDS011;26811;53.160;8.202;2022-08-02T18:37:03;14.43;;;6.37;;
41059;SDS011;26811;53.160;8.202;2022-08-02T18:42:04;8.63;;;5.77;;
41059;SDS011;26811;53.160;8.202;2022-08-02T18:47:05;14.95;;;6.72;;
41059;SDS011;26811;53.160;8.202;2022-08-02T18:52:06;23.80;;;7.93;;
41059;SDS011;26811;53.160;8.202;2022-08-02T18:57:06;17.83;;;7.17;;
41059;SDS011;26811;53.160;8.202;2022-08-02T19:02:08;15.02;;;7.30;;
41059;SDS011;26811;53.160;8.202;2022-08-02T19:07:08;14.17;;;7.30;;
41059;SDS011;26811;53.160;8.202;2022-08-02T19:12:09;14.20;;;7.57;;
41059;SDS011;26811;53.160;8.202;2022-08-02T19:17:10;19.13;;;7.70;;
41059;SDS011;26811;53.160;8.202;2022-08-02T19:22:11;14.23;;;7.57;;
41059;SDS011;26811;53.160;8.202;2022-08-02T19:27:14;17.55;;;7.85;;
41059;SDS011;26811;53.160;8.202;2022-08-02T19:32:17;19.90;;;9.02;;
41059;SDS011;26811;53.160;8.202;2022-08-02T19:37:18;16.30;;;9.07;;
41059;SDS011;26811;53.160;8.202;2022-08-02T19:42:19;17.50;;;8.87;;
41059;SDS011;26811;53.160;8.202;2022-08-02T19:47:20;18.77;;;9.60;;
41059;SDS011;26811;53.160;8.202;2022-08-02T19:52:20;20.10;;;10.25;;
41059;SDS011;26811;53.160;8.202;2022-08-02T19:57:21;25.33;;;11.05;;
41059;SDS011;26811;53.160;8.202;2022-08-02T20:02:21;24.38;;;11.95;;
41059;SDS011;26811;53.160;8.202;2022-08-02T20:07:22;28.90;;;11.40;;
41059;SDS011;26811;53.160;8.202;2022-08-02T20:12:23;36.15;;;11.98;;
41059;SDS011;26811;53.160;8.202;2022-08-02T20:17:23;23.65;;;11.98;;
41059;SDS011;26811;53.160;8.202;2022-08-02T20:22:24;25.77;;;12.30;;
41059;SDS011;26811;53.160;8.202;2022-08-02T20:27:25;24.95;;;11.95;;
41059;SDS011;26811;53.160;8.202;2022-08-02T20:32:26;31.83;;;12.18;;
41059;SDS011;26811;53.160;8.202;2022-08-02T20:37:26;25.27;;;11.85;;
41059;SDS011;26811;53.160;8.202;2022-08-02T20:42:27;33.97;;;12.20;;
41059;SDS011;26811;53.160;8.202;2022-08-02T20:47:28;34.90;;;12.90;;
41059;SDS011;26811;53.160;8.202;2022-08-02T20:52:29;24.45;;;12.82;;
41059;SDS011;26811;53.160;8.202;2022-08-02T20:57:29;27.23;;;12.60;;
41059;SDS011;26811;53.160;8.202;2022-08-02T21:02:30;29.35;;;12.63;;
41059;SDS011;26811;53.160;8.202;2022-08-02T21:07:30;29.90;;;12.60;;
41059;SDS011;26811;53.160;8.202;2022-08-02T21:12:31;27.05;;;12.68;;
41059;SDS011;26811;53.160;8.202;2022-08-02T21:17:32;26.55;;;12.82;;
41059;SDS011;26811;53.160;8.202;2022-08-02T21:22:32;29.35;;;12.48;;
41059;SDS011;26811;53.160;8.202;2022-08-02T21:27:33;25.35;;;12.90;;
41059;SDS011;26811;53.160;8.202;2022-08-02T21:32:34;28.75;;;12.77;;
41059;SDS011;26811;53.160;8.202;2022-08-02T21:37:34;32.03;;;13.27;;
41059;SDS011;26811;53.160;8.202;2022-08-02T21:42:35;33.17;;;13.98;;
41059;SDS011;26811;53.160;8.202;2022-08-02T21:47:35;34.63;;;14.70;;
41059;SDS011;26811;53.160;8.202;2022-08-02T21:52:36;39.60;;;16.13;;
41059;SDS011;26811;53.160;8.202;2022-08-02T21:57:37;39.67;;;15.77;;
41059;SDS011;26811;53.160;8.202;2022-08-02T22:02:37;41.50;;;16.60;;
41059;SDS011;26811;53.160;8.202;2022-08-02T22:07:37;42.08;;;15.48;;
41059;SDS011;26811;53.160;8.202;2022-08-02T22:12:38;37.17;;;15.63;;
41059;SDS011;26811;53.160;8.202;2022-08-02T22:17:38;45.15;;;15.48;;
41059;SDS011;26811;53.160;8.202;2022-08-02T22:22:39;30.75;;;14.93;;
41059;SDS011;26811;53.160;8.202;2022-08-02T22:27:40;35.78;;;15.38;;
41059;SDS011;26811;53.160;8.202;2022-08-02T22:32:40;37.35;;;15.00;;
41059;SDS011;26811;53.160;8.202;2022-08-02T22:38:00;32.95;;;14.35;;
41059;SDS011;26811;53.160;8.202;2022-08-02T22:43:00;39.47;;;14.20;;
41059;SDS011;26811;53.160;8.202;2022-08-02T22:48:01;29.48;;;13.73;;
41059;SDS011;26811;53.160;8.202;2022-08-02T22:53:01;31.25;;;14.70;;
41059;SDS011;26811;53.160;8.202;2022-08-02T22:58:03;31.80;;;12.80;;
41059;SDS011;26811;53.160;8.202;2022-08-02T23:03:04;32.72;;;13.50;;
41059;SDS011;26811;53.160;8.202;2022-08-02T23:08:04;22.38;;;11.93;;
41059;SDS011;26811;53.160;8.202;2022-08-02T23:13:05;24.73;;;11.18;;
41059;SDS011;26811;53.160;8.202;2022-08-02T23:18:05;27.90;;;11.48;;
41059;SDS011;26811;53.160;8.202;2022-08-02T23:23:24;30.10;;;10.27;;
41059;SDS011;26811;53.160;8.202;2022-08-02T23:33:28;28.80;;;11.18;;
41059;SDS011;26811;53.160;8.202;2022-08-02T23:38:28;21.52;;;10.35;;
41059;SDS011;26811;53.160;8.202;2022-08-02T23:43:29;25.95;;;10.73;;
41059;SDS011;26811;53.160;8.202;2022-08-02T23:48:29;26.50;;;10.02;;
41059;SDS011;26811;53.160;8.202;2022-08-02T23:53:30;30.65;;;10.88;;
41059;SDS011;26811;53.160;8.202;2022-08-02T23:58:30;27.23;;;11.27;;
